Latest Weather Observations for Sheoaks

IDV60901

Issued at 7:31 pm EST Thursday 30 June 2022 (issued every 10 minutes, with the page automatically refreshed every 10 minutes)

About weather observations | Map of Melbourne area stations | Latest observations for Melbourne area | Other Formats
Station Details ID: 087168 Name: SHEOAKS Lat: -37.91 Lon: 144.13 Height: 236.7 m
Data from the previous 72 hours. | See also: Recent months at Sheoaks
Date/Time
EST
Temp
°C
App
Temp
°C
Dew
Point
°C
Rel
Hum
%
Delta-T
°C
Wind Press
QNH
hPa
Press
MSL
hPa
Rain since
9am
mm
Dir  Spd
km/h
Gust
km/h
Spd
kts
Gust
kts
30/07:30pm 9.6 7.9 8.5 93 0.5 S 7 13 4 7 1027.2 1027.6 0.2
30/07:00pm 9.6 8.3 7.5 87 1.0 S 4 6 2 3 1026.8 1027.2 0.0
30/06:30pm 9.7 8.3 7.3 85 1.2 SSW 4 6 2 3 1026.5 1026.9 0.0
30/06:00pm 9.8 8.8 7.2 84 1.2 SSW 2 4 1 2 1026.2 1026.5 0.0
30/05:30pm 9.9 8.5 7.2 83 1.3 SSW 4 6 2 3 1025.8 1026.1 0.0
30/05:00pm 10.6 8.6 7.1 79 1.7 SSW 7 11 4 6 1025.5 1025.8 0.0
30/04:30pm 11.1 9.4 6.0 71 2.4 SSW 4 6 2 3 1025.2 1025.5 0.0
30/04:00pm 11.2 9.1 5.9 70 2.5 SSW 6 9 3 5 1025.0 1025.3 0.0
30/03:30pm 11.5 9.3 6.4 71 2.4 SW 7 11 4 6 1024.7 1025.1 0.0
30/03:00pm 11.1 8.6 6.6 74 2.1 SSW 9 11 5 6 1024.6 1025.0 0.0
30/02:30pm 12.0 10.0 6.1 67 2.8 SW 6 9 3 5 1024.6 1025.0 0.0
30/02:00pm 11.5 9.0 6.6 72 2.3 SSW 9 15 5 8 1024.7 1025.1 0.0
30/01:30pm 11.5 9.4 6.6 72 2.3 SSW 7 11 4 6 1024.6 1025.0 0.0
30/01:00pm 11.5 9.4 6.0 69 2.6 SSW 6 9 3 5 1024.7 1025.1 0.0
30/12:30pm 11.3 9.1 6.4 72 2.3 SSW 7 13 4 7 1025.1 1025.4 0.0
30/12:00pm 11.0 9.3 6.0 71 2.3 SW 4 11 2 6 1025.2 1025.5 0.0
30/11:30am 10.8 8.8 6.4 74 2.1 WSW 6 7 3 4 1025.4 1025.7 0.0
30/11:00am 10.0 8.2 5.4 73 2.1 SSW 4 7 2 4 1025.4 1025.7 0.0
30/10:30am 9.1 7.2 5.1 76 1.8 WNW 4 7 2 4 1025.4 1025.7 0.0
30/10:00am 8.4 6.6 5.2 80 1.4 NNW 4 6 2 3 1025.3 1025.6 0.0
30/09:30am 6.2 3.8 4.5 89 0.7 N 6 7 3 4 1024.7 1025.1 0.0
30/09:00am 5.0 2.5 3.5 90 0.6 N 6 7 3 4 1024.5 1024.9 0.0
30/08:30am 4.7 2.5 3.2 90 0.6 N 4 6 2 3 1024.3 1024.7 0.0
30/08:00am 4.7 2.1 3.4 91 0.5 NNW 6 7 3 4 1024.1 1024.5 0.0
30/07:30am 4.4 1.8 3.1 91 0.5 N 6 7 3 4 1023.7 1024.1 0.0
30/07:00am 4.5 2.2 2.8 89 0.7 N 4 7 2 4 1023.3 1023.7 0.0
30/06:30am 4.8 2.2 3.0 88 0.7 NE 6 7 3 4 1023.0 1023.4 0.0
30/06:00am 4.9 3.0 2.9 87 0.8 N 2 4 1 2 1022.5 1022.8 0.0
30/05:30am 5.1 3.6 3.0 86 0.9 CALM 0 0 0 0 1022.2 1022.5 0.0
30/05:00am 5.3 3.0 3.0 85 1.0 NW 4 6 2 3 1021.8 1022.1 0.0
30/04:30am 5.6 3.0 3.1 84 1.1 NW 6 9 3 5 1021.5 1021.8 0.0
30/04:00am 4.9 2.0 2.4 84 1.0 SSW 7 11 4 6 1021.5 1021.8 0.0
30/03:30am 5.2 1.9 2.4 82 1.2 N 9 9 5 5 1021.3 1021.6 0.0
30/03:00am 6.2 3.3 2.8 79 1.4 N 7 13 4 7 1021.4 1021.7 0.0
30/02:30am 5.7 2.0 2.5 80 1.3 N 11 13 6 7 1021.2 1021.5 0.0
30/02:00am 5.5 1.8 2.5 81 1.2 N 11 17 6 9 1021.2 1021.5 0.0
30/01:30am 6.1 2.5 2.7 79 1.4 NNW 11 17 6 9 1021.0 1021.3 0.0
30/01:00am 6.5 2.9 2.8 77 1.6 NNW 11 17 6 9 1020.7 1021.0 0.0
30/12:30am 6.8 2.4 2.9 76 1.6 NNW 15 20 8 11 1020.9 1021.2 0.0
30/12:00am 6.9 2.9 2.8 75 1.7 NNW 13 20 7 11 1020.9 1021.2 0.0
 
Date/Time
EST
Temp
°C
App
Temp
°C
Dew
Point
°C
Rel
Hum
%
Delta-T
°C
Wind Press
QNH
hPa
Press
MSL
hPa
Rain since
9am
mm
Dir  Spd
km/h
Gust
km/h
Spd
kts
Gust
kts
29/11:30pm 6.7 3.0 2.6 75 1.7 NNW 11 17 6 9 1021.0 1021.3 0.0
29/11:00pm 6.9 3.2 2.6 74 1.8 NNW 11 15 6 8 1020.8 1021.1 0.0
29/10:30pm 7.2 3.5 2.5 72 2.0 NNW 11 17 6 9 1020.7 1021.0 0.0
29/10:00pm 7.3 3.2 2.4 71 2.0 NNW 13 19 7 10 1020.7 1021.0 0.0
29/09:30pm 7.5 3.0 2.4 70 2.1 NNW 15 22 8 12 1020.7 1021.0 0.0
29/09:00pm 7.6 3.5 2.3 69 2.2 NNW 13 19 7 10 1020.6 1020.9 0.0
29/08:30pm 7.7 4.0 2.4 69 2.2 NNW 11 15 6 8 1020.6 1020.9 0.0
29/08:00pm 7.7 4.4 2.4 69 2.2 NNW 9 13 5 7 1020.3 1020.7 0.0
29/07:30pm 7.4 3.3 2.5 71 2.1 N 13 17 7 9 1020.1 1020.5 0.0
29/07:00pm 7.4 3.7 2.5 71 2.1 N 11 17 6 9 1019.8 1020.2 0.0
29/06:30pm 7.5 3.5 2.6 71 2.1 N 13 19 7 10 1019.6 1020.0 0.0
29/06:00pm 7.8 3.8 2.7 70 2.2 N 13 17 7 9 1019.4 1019.8 0.0
29/05:30pm 8.4 4.3 2.2 65 2.6 N 13 17 7 9 1019.4 1019.8 0.0
29/05:00pm 8.3 5.0 2.5 67 2.5 N 9 15 5 8 1019.7 1020.1 0.0
29/04:30pm 8.9 6.5 2.3 63 2.8 N 4 7 2 4 1019.9 1020.3 0.0
29/04:00pm 9.3 6.0 2.2 61 3.0 NNW 9 17 5 9 1019.9 1020.3 0.0
29/03:30pm 9.6 5.9 2.5 61 3.1 NNW 11 17 6 9 1019.9 1020.3 0.0
29/03:00pm 9.7 6.1 2.8 62 3.0 NNW 11 19 6 10 1020.1 1020.5 0.0
29/02:30pm 9.7 5.7 2.8 62 3.0 NNW 13 20 7 11 1020.3 1020.7 0.0
29/02:00pm 9.7 6.4 2.6 61 3.1 NW 9 22 5 12 1020.5 1020.8 0.0
29/01:30pm 9.7 4.9 2.6 61 3.1 NNW 17 26 9 14 1020.3 1020.7 0.0
29/01:00pm 9.6 5.5 2.5 61 3.0 NNW 13 17 7 9 1021.1 1021.4 0.0
29/12:30pm 9.6 4.7 2.2 60 3.2 NNW 17 26 9 14 1021.6 1021.9 0.0
29/12:00pm 9.8 6.1 2.4 60 3.2 NNW 11 19 6 10 1022.2 1022.5 0.0
29/11:30am 9.7 6.0 2.6 61 3.1 N 11 24 6 13 1022.3 1022.6 0.0
29/11:00am 9.2 5.2 2.8 64 2.7 N 13 20 7 11 1022.5 1022.8 0.0
29/10:30am 8.8 4.8 2.8 66 2.6 NNW 13 19 7 10 1023.1 1023.5 0.0
29/10:00am 8.4 4.3 2.4 66 2.5 N 13 24 7 13 1023.3 1023.7 0.0
29/09:30am 7.9 2.7 2.2 67 2.4 N 19 26 10 14 1023.1 1023.5 0.0
29/09:00am 7.2 2.7 2.1 70 2.1 N 15 22 8 12 1023.2 1023.6 0.0
29/08:30am 7.0 2.1 1.9 70 2.1 N 17 22 9 12 1023.0 1023.4 0.0
29/08:00am 6.7 1.7 1.6 70 2.1 N 17 24 9 13 1023.5 1023.9 0.0
29/07:30am 6.1 2.3 1.8 74 1.8 NW 11 20 6 11 1023.4 1023.8 0.0
29/07:00am 4.9 2.1 2.1 82 1.1 N 6 7 3 4 1023.4 1023.8 0.0
29/06:30am 2.9 0.1 1.9 93 0.4 NW 6 9 3 5 1023.4 1023.8 0.0
29/06:00am 2.1 -0.5 0.9 92 0.5 NNW 4 7 2 4 1023.6 1024.0 0.0
29/05:30am 2.8 0.3 1.3 90 0.6 NNW 4 6 2 3 1023.3 1023.7 0.0
29/05:00am 3.7 1.2 1.4 85 0.9 SSW 4 9 2 5 1023.2 1023.6 0.0
29/04:30am 5.0 2.0 1.8 80 1.3 S 7 11 4 6 1023.1 1023.5 0.0
29/04:00am 6.0 3.5 1.5 73 1.8 ESE 4 6 2 3 1022.9 1023.3 0.0
29/03:30am 7.8 4.9 2.7 70 2.2 N 7 15 4 8 1023.2 1023.6 0.0
29/03:00am 8.0 5.2 3.3 72 2.0 SW 7 11 4 6 1023.6 1024.0 0.0
29/02:30am 8.2 4.6 3.1 70 2.2 NNW 11 26 6 14 1023.4 1023.8 0.0
29/02:00am 8.3 3.7 3.6 72 2.0 NNW 17 30 9 16 1023.2 1023.6 0.0
29/01:30am 7.7 3.9 3.7 76 1.7 N 13 24 7 13 1023.2 1023.6 0.0
29/01:00am 7.0 4.5 4.7 85 1.0 NNW 7 17 4 9 1023.8 1024.2 0.0
29/12:30am 5.5 3.6 4.9 96 0.3 NNE 4 7 2 4 1024.5 1024.9 0.0
29/12:00am 2.7 0.7 2.1 96 0.2 ENE 2 6 1 3 1025.2 1025.5 0.0
 
Date/Time
EST
Temp
°C
App
Temp
°C
Dew
Point
°C
Rel
Hum
%
Delta-T
°C
Wind Press
QNH
hPa
Press
MSL
hPa
Rain since
9am
mm
Dir  Spd
km/h
Gust
km/h
Spd
kts
Gust
kts
28/11:30pm 4.3 3.0 4.2 99 0.0 CALM 0 4 0 2 1025.6 1025.9 0.0
28/11:00pm 2.5 0.9 2.2 98 0.1 CALM 0 0 0 0 1025.7 1026.0 0.0
28/10:30pm 1.1 -0.8 0.7 97 0.2 CALM 0 4 0 2 1026.0 1026.3 0.0
28/10:00pm 1.6 -0.6 1.2 97 0.2 N 2 4 1 2 1026.3 1026.6 0.0
28/09:30pm 2.2 -0.9 1.6 96 0.2 N 7 9 4 5 1026.5 1026.9 0.0
28/09:00pm 2.5 0.4 1.8 95 0.3 N 2 6 1 3 1026.6 1027.0 0.0
28/08:30pm 3.0 0.9 2.0 93 0.4 N 2 4 1 2 1026.7 1027.1 0.0
28/08:00pm 4.0 2.4 2.5 90 0.6 CALM 0 4 0 2 1026.8 1027.2 0.0
28/07:30pm 4.7 2.3 2.2 84 1.0 N 4 6 2 3 1026.7 1027.1 0.0
28/07:00pm 6.2 4.0 3.4 82 1.2 N 4 6 2 3 1026.7 1027.1 0.0
28/06:30pm 7.4 6.0 3.5 76 1.7 CALM 0 4 0 2 1026.7 1027.1 0.0
28/06:00pm 8.1 6.0 3.8 74 1.9 SW 4 9 2 5 1026.6 1027.0 0.0
28/05:30pm 9.0 6.5 4.0 71 2.2 W 6 15 3 8 1026.3 1026.6 0.0
28/05:00pm 10.0 6.3 4.2 67 2.6 N 13 19 7 10 1025.8 1026.1 0.0
28/04:30pm 11.1 6.6 4.3 63 3.1 N 17 24 9 13 1026.0 1026.3 0.0
28/04:00pm 12.0 8.4 5.0 62 3.2 NW 13 19 7 10 1026.5 1026.9 0.0
28/03:30pm 12.6 9.7 4.8 59 3.6 WNW 9 15 5 8 1026.9 1027.3 0.0
28/03:00pm 12.7 9.5 4.9 59 3.6 NNW 11 15 6 8 1027.2 1027.6 0.0
28/02:30pm 12.9 10.4 4.6 57 3.9 WNW 7 11 4 6 1027.5 1027.9 0.0
28/02:00pm 13.1 10.4 5.5 60 3.6 NNW 9 17 5 9 1027.6 1028.0 0.0
28/01:30pm 12.4 8.6 5.6 63 3.2 N 15 26 8 14 1027.7 1028.1 0.0
28/01:00pm 11.5 8.5 5.8 68 2.7 N 11 20 6 11 1028.2 1028.6 0.0
28/12:30pm 9.9 6.9 5.9 76 1.9 N 11 17 6 9 1028.7 1029.1 0.0
28/12:00pm 9.1 6.4 5.8 80 1.5 N 9 15 5 8 1029.6 1029.9 0.0
28/11:30am 8.4 5.4 5.9 84 1.2 N 11 19 6 10 1030.0 1030.4 0.0
28/11:00am 7.6 4.5 5.4 86 1.0 N 11 17 6 9 1030.3 1030.7 0.0
28/10:30am 7.2 4.5 5.7 90 0.7 N 9 13 5 7 1030.8 1031.2 0.0
28/10:00am 5.8 2.6 4.9 94 0.4 N 11 19 6 10 1030.7 1031.1 0.0
28/09:30am 5.2 2.3 4.9 98 0.1 N 9 15 5 8 1030.9 1031.3 0.0
28/09:00am 4.1 1.1 4.0 99 0.0 N 9 13 5 7 1031.2 1031.6 0.2
28/08:30am 3.0 -0.2 2.9 99 0.0 N 9 11 5 6 1031.3 1031.7 0.2
28/08:00am 2.8 -0.8 2.7 99 0.0 N 11 13 6 7 1031.4 1031.8 0.2
28/07:30am 2.8 -0.5 2.7 99 0.0 N 9 13 5 7 1031.1 1031.5 0.2
28/07:00am 3.1 -0.5 3.0 99 0.0 N 11 15 6 8 1030.8 1031.2 0.2
28/06:30am 3.1 -0.1 3.1 100 0.0 N 9 13 5 7 1030.6 1031.0 0.0
28/06:00am 2.8 -0.8 2.8 100 0.0 N 11 15 6 8 1030.4 1030.8 0.0
28/05:30am 2.4 -0.9 2.4 100 0.0 N 9 11 5 6 1030.5 1030.9 0.0
28/05:00am 2.6 -0.7 2.6 100 0.0 N 9 13 5 7 1030.7 1031.1 0.0
28/04:30am 2.5 -0.4 2.5 100 0.0 N 7 9 4 5 1030.8 1031.2 0.0
28/04:00am 2.9 -0.3 2.9 100 0.0 N 9 13 5 7 1030.8 1031.2 0.0
28/03:30am 2.9 -0.3 2.9 100 0.0 N 9 13 5 7 1031.2 1031.6 0.0
28/03:00am 2.7 -0.6 2.7 100 0.0 N 9 11 5 6 1031.6 1032.0 0.0
28/02:30am 2.6 -0.3 2.6 100 0.0 N 7 9 4 5 1031.7 1032.1 0.0
28/02:00am 3.1 0.3 3.1 100 0.0 N 7 9 4 5 1031.7 1032.1 0.0
28/01:30am 3.2 0.0 3.2 100 0.0 N 9 11 5 6 1031.8 1032.2 0.0
28/01:00am 3.1 -0.1 3.1 100 0.0 N 9 13 5 7 1032.0 1032.4 0.0
28/12:30am 3.1 0.3 3.1 100 0.0 N 7 9 4 5 1032.0 1032.4 0.0
28/12:00am 3.3 0.5 3.3 100 0.0 N 7 9 4 5 1032.2 1032.6 0.0
 
Date/Time
EST
Temp
°C
App
Temp
°C
Dew
Point
°C
Rel
Hum
%
Delta-T
°C
Wind Press
QNH
hPa
Press
MSL
hPa
Rain since
9am
mm
Dir  Spd
km/h
Gust
km/h
Spd
kts
Gust
kts
27/11:30pm 3.2 0.4 3.2 100 0.0 N 7 11 4 6 1032.3 1032.7 0.0
27/11:00pm 3.3 0.1 3.3 100 0.0 N 9 11 5 6 1032.3 1032.7 0.0
27/10:30pm 3.5 0.8 3.5 100 0.0 N 7 9 4 5 1032.5 1032.9 0.0
27/10:00pm 3.8 0.7 3.7 99 0.0 N 9 11 5 6 1032.7 1033.1 0.0
27/09:30pm 3.7 1.0 3.6 99 0.0 N 7 9 4 5 1032.8 1033.2 0.0
27/09:00pm 3.9 1.2 3.6 98 0.1 N 7 9 4 5 1032.9 1033.3 0.0
27/08:30pm 4.1 1.6 3.8 98 0.1 N 6 6 3 3 1033.1 1033.5 0.0
27/08:00pm 4.7 2.1 4.3 97 0.2 N 7 7 4 4 1032.9 1033.3 0.0

Latest Capital City Observations: Canberra | Sydney | Melbourne | Brisbane | Adelaide | Perth | Hobart | Darwin

Other formats

Comma delimited format used in spreadsheet applications
http://www.bom.gov.au/fwo/IDV60901/IDV60901.94863.axf

JavaScript Object Notation format (JSON) in row-major order
http://www.bom.gov.au/fwo/IDV60901/IDV60901.94863.json

Data quality

Most of these data are generated automatically and are frequently updated. Quality checks on data are not normally performed. It is possible for incorrect values to appear. Refer to information at About Latest Weather Observations and please check the disclaimer before using these data.